Hlavní strana
METAR-TAF:

METAR-TAF

Letiště :

Apalachicola, Florida, Spojené státy americké

zeměpisná šířka: 29-43-37N, zeměpisná délka: 085-01-29W, výška: 6 m

Aktuální stav počasí

Zpráva byla vytvořena před 33 minutami, v 16:53 UTC
Severoseverozápadní vítr 10 kt
Teplota 10°C
Vlhkost vzduchu 87%
Tlak 1018 hPa
Viditelnost: 16.1 km
Zataženo ve výšce 700 ft

METAR: KAAF 151653Z AUTO 34010KT 10SM OVC007 10/08 A3007 RMK AO2 SLP181 T01000078

Čas: 12:26 (17:26 UTC)


TAF: chybějící

Stav a předpovědi počasí z více než 4 000 letišť (zprávy METAR a TAF).

Červené a žluté tečky na mapě představují dostupné meteorologické stanice.

Když kurzor umístíte na tečku, zobrazí se název stanice.

Pak kliknutím zobrazíte stav a předpověď počasí.

Chcete-li změnit mapu, kliknutím na zelené tlačítko se znaménkem +mapu přiblížíte, kliknutím na zelené tlačítko se znaménkem – mapu oddálíte a kliknutím na zelené šipky přejdete na sousední mapy.


METAR-TAF: